« 雨日2 成田国際空港 2014/11/29 sat | トップページ | 那覇基地エアーフェスタ2014【フライト編】 那覇空港 2014/12/14 sun »

2014/12/17

那覇基地エアーフェスタ2014【B.I.編】 那覇空港 2014/12/14 sun

楽しい日々は、あっと言う間に終わって、強行軍から帰ってくると、現実の雑務がたんまり。ようやく時間が取れて、今年最後の遠征、那覇基地航空祭です。まずはブルーインパルスから。

20141214_roah_bi00

背後を民航機がひっきりなしに通過する那覇基地のエプロン。

20141214_roah_bi01

ROAH 141400Z 06004KT 040V100 CAVOK 16/08 Q1025 RMK A3029

13時を廻り、いよいよ準備が始まった。

20141214_roah_bi02

整列して、レッツショータイム。

20141214_roah_bi03t465731

○○%・・・ エンジンスタート

20141214_roah_bi04

チェックイン リクエストタクシー

20141214_roah_bi05

しっかりたのみます。

20141214_roah_bi06t465731

#1 46-5731

20141214_roah_bi07t465726

#2 46-5726 #3 46-5730

20141214_roah_bi08t665745

#4 66-5745 #5 46-5728

20141214_roah_bi09t465725

#6 46-5725

20141214_roah_bi10

ダイヤモンドテイクオフ

20141214_roah_bi11t465728

ローアングルテイクオフ

20141214_roah_bi12

まずはエシュロンで進入

20141214_roah_bi13

下から見上げると、トレイルにも見える・・

20141214_roah_bi14

次は、リーダーズベネフィットローパス

20141214_roah_bi15

スワン

20141214_roah_bi16

グランドクロス

20141214_roah_bi17

デルタ360°ターン

20141214_roah_bi18

デルタローパス

20141214_roah_bi19

編隊解散して・・

20141214_roah_bi20

ポジション、スモーク

20141214_roah_bi21

サクラ

20141214_roah_bi22

スモーク

20141214_roah_bi23

レベルキューピッド

20141214_roah_bi24

最後は皆さんへ愛を込めた贈り物、クリスマスツリー

20141214_roah_bi25

20141214_roah_bi26

そのまま編隊解散しながらダウンウインドへ

20141214_roah_bi27t465731

E3

20141214_roah_bi28t465730

#3 46-5730

20141214_roah_bi29t465728

#5 46-5728

20141214_roah_bi30

20141214_roah_bi31

整備員の待つエプロンへ

ROAH 141530Z VRB02KT 9999 FEW045 SCT060 17/08 Q1024 RMK 1SC045 3SC060 A3026

20141214_roah_bi32

エンジンシャットダウンして、今日もGoodJOB

20141214_roah_bi33

ありがとうございました。

20141214_roah_bi34

お子ちゃまからの花束贈呈で、笑顔がこぼれます。

|

« 雨日2 成田国際空港 2014/11/29 sat | トップページ | 那覇基地エアーフェスタ2014【フライト編】 那覇空港 2014/12/14 sun »

BI」カテゴリの記事

那覇空港」カテゴリの記事

コメント

コメントを書く



(ウェブ上には掲載しません)


コメントは記事投稿者が公開するまで表示されません。



トラックバック


この記事へのトラックバック一覧です: 那覇基地エアーフェスタ2014【B.I.編】 那覇空港 2014/12/14 sun:

« 雨日2 成田国際空港 2014/11/29 sat | トップページ | 那覇基地エアーフェスタ2014【フライト編】 那覇空港 2014/12/14 sun »